sensor_id;sensor_type;location;lat;lon;timestamp;P1;durP1;ratioP1;P2;durP2;ratioP2
1204;SDS011;592;48.764;9.174;2023-01-15T00:01:25;3.60;;;0.90;;
1204;SDS011;592;48.764;9.174;2023-01-15T00:03:54;2.50;;;0.80;;
1204;SDS011;592;48.764;9.174;2023-01-15T00:06:22;3.10;;;1.23;;
1204;SDS011;592;48.764;9.174;2023-01-15T00:08:52;4.70;;;1.10;;
1204;SDS011;592;48.764;9.174;2023-01-15T00:11:20;2.93;;;1.10;;
1204;SDS011;592;48.764;9.174;2023-01-15T00:13:47;2.50;;;0.70;;
1204;SDS011;592;48.764;9.174;2023-01-15T00:16:15;2.70;;;0.90;;
1204;SDS011;592;48.764;9.174;2023-01-15T00:18:43;2.70;;;0.90;;
1204;SDS011;592;48.764;9.174;2023-01-15T00:21:14;2.87;;;0.90;;
1204;SDS011;592;48.764;9.174;2023-01-15T00:23:41;2.60;;;0.90;;
1204;SDS011;592;48.764;9.174;2023-01-15T00:26:27;2.77;;;0.90;;
1204;SDS011;592;48.764;9.174;2023-01-15T00:29:13;2.60;;;0.93;;
1204;SDS011;592;48.764;9.174;2023-01-15T00:31:40;2.87;;;0.90;;
1204;SDS011;592;48.764;9.174;2023-01-15T00:34:08;2.57;;;0.87;;
1204;SDS011;592;48.764;9.174;2023-01-15T00:36:34;2.47;;;0.80;;
1204;SDS011;592;48.764;9.174;2023-01-15T00:39:02;2.77;;;0.77;;
1204;SDS011;592;48.764;9.174;2023-01-15T00:41:30;2.70;;;0.90;;
1204;SDS011;592;48.764;9.174;2023-01-15T00:43:57;2.70;;;0.90;;
1204;SDS011;592;48.764;9.174;2023-01-15T00:46:24;2.60;;;0.80;;
1204;SDS011;592;48.764;9.174;2023-01-15T00:48:51;2.33;;;0.80;;
1204;SDS011;592;48.764;9.174;2023-01-15T00:51:18;2.50;;;0.83;;
1204;SDS011;592;48.764;9.174;2023-01-15T00:53:44;3.63;;;0.83;;
1204;SDS011;592;48.764;9.174;2023-01-15T00:56:11;2.93;;;1.03;;
1204;SDS011;592;48.764;9.174;2023-01-15T00:58:39;3.33;;;1.40;;
1204;SDS011;592;48.764;9.174;2023-01-15T01:01:06;3.10;;;0.90;;
1204;SDS011;592;48.764;9.174;2023-01-15T01:03:33;4.13;;;1.20;;
1204;SDS011;592;48.764;9.174;2023-01-15T01:06:00;3.33;;;1.00;;
1204;SDS011;592;48.764;9.174;2023-01-15T01:08:27;3.00;;;1.20;;
1204;SDS011;592;48.764;9.174;2023-01-15T01:11:01;2.80;;;1.00;;
1204;SDS011;592;48.764;9.174;2023-01-15T01:13:29;2.70;;;0.90;;
1204;SDS011;592;48.764;9.174;2023-01-15T01:15:57;3.20;;;1.20;;
1204;SDS011;592;48.764;9.174;2023-01-15T01:18:24;2.40;;;0.90;;
1204;SDS011;592;48.764;9.174;2023-01-15T01:20:51;2.70;;;0.90;;
1204;SDS011;592;48.764;9.174;2023-01-15T01:23:18;5.07;;;0.90;;
1204;SDS011;592;48.764;9.174;2023-01-15T01:25:45;2.40;;;0.80;;
1204;SDS011;592;48.764;9.174;2023-01-15T01:28:12;3.10;;;1.00;;
1204;SDS011;592;48.764;9.174;2023-01-15T01:30:38;3.47;;;1.00;;
1204;SDS011;592;48.764;9.174;2023-01-15T01:33:07;2.47;;;0.73;;
1204;SDS011;592;48.764;9.174;2023-01-15T01:35:33;2.80;;;1.00;;
1204;SDS011;592;48.764;9.174;2023-01-15T01:38:00;3.40;;;0.90;;
1204;SDS011;592;48.764;9.174;2023-01-15T01:40:27;2.93;;;0.90;;
1204;SDS011;592;48.764;9.174;2023-01-15T01:42:54;2.90;;;0.97;;
1204;SDS011;592;48.764;9.174;2023-01-15T01:45:22;2.30;;;0.80;;
1204;SDS011;592;48.764;9.174;2023-01-15T01:47:52;2.70;;;0.93;;
1204;SDS011;592;48.764;9.174;2023-01-15T01:50:22;3.53;;;0.90;;
1204;SDS011;592;48.764;9.174;2023-01-15T01:52:51;3.27;;;0.90;;
1204;SDS011;592;48.764;9.174;2023-01-15T01:55:21;2.50;;;0.70;;
1204;SDS011;592;48.764;9.174;2023-01-15T01:57:50;2.80;;;0.97;;
1204;SDS011;592;48.764;9.174;2023-01-15T02:00:19;2.50;;;0.80;;
1204;SDS011;592;48.764;9.174;2023-01-15T02:02:48;2.40;;;0.77;;
1204;SDS011;592;48.764;9.174;2023-01-15T02:05:19;2.57;;;0.80;;
1204;SDS011;592;48.764;9.174;2023-01-15T02:07:53;2.80;;;0.83;;
1204;SDS011;592;48.764;9.174;2023-01-15T02:10:20;3.80;;;0.80;;
1204;SDS011;592;48.764;9.174;2023-01-15T02:12:48;5.20;;;1.00;;
1204;SDS011;592;48.764;9.174;2023-01-15T02:15:22;3.03;;;0.90;;
1204;SDS011;592;48.764;9.174;2023-01-15T02:17:55;2.60;;;0.80;;
1204;SDS011;592;48.764;9.174;2023-01-15T02:20:30;2.40;;;0.93;;
1204;SDS011;592;48.764;9.174;2023-01-15T02:23:09;2.63;;;0.80;;
1204;SDS011;592;48.764;9.174;2023-01-15T02:25:52;3.30;;;1.10;;
1204;SDS011;592;48.764;9.174;2023-01-15T02:28:28;2.77;;;0.80;;
1204;SDS011;592;48.764;9.174;2023-01-15T02:30:58;2.50;;;0.80;;
1204;SDS011;592;48.764;9.174;2023-01-15T02:33:30;2.33;;;0.70;;
1204;SDS011;592;48.764;9.174;2023-01-15T02:36:02;2.60;;;0.80;;
1204;SDS011;592;48.764;9.174;2023-01-15T02:38:33;2.77;;;0.80;;
1204;SDS011;592;48.764;9.174;2023-01-15T02:41:04;2.30;;;0.70;;
1204;SDS011;592;48.764;9.174;2023-01-15T02:43:41;2.87;;;0.87;;
1204;SDS011;592;48.764;9.174;2023-01-15T02:46:10;2.60;;;0.70;;
1204;SDS011;592;48.764;9.174;2023-01-15T02:48:39;2.50;;;0.80;;
1204;SDS011;592;48.764;9.174;2023-01-15T02:51:10;3.10;;;0.80;;
1204;SDS011;592;48.764;9.174;2023-01-15T02:53:40;2.47;;;0.87;;
1204;SDS011;592;48.764;9.174;2023-01-15T02:56:10;2.67;;;0.90;;
1204;SDS011;592;48.764;9.174;2023-01-15T02:58:41;2.80;;;1.13;;
1204;SDS011;592;48.764;9.174;2023-01-15T03:01:10;2.40;;;0.80;;
1204;SDS011;592;48.764;9.174;2023-01-15T03:03:41;2.40;;;0.70;;
1204;SDS011;592;48.764;9.174;2023-01-15T03:06:14;2.50;;;0.77;;
1204;SDS011;592;48.764;9.174;2023-01-15T03:08:44;2.57;;;0.70;;
1204;SDS011;592;48.764;9.174;2023-01-15T03:11:12;2.50;;;0.70;;
1204;SDS011;592;48.764;9.174;2023-01-15T03:13:45;2.67;;;0.80;;
1204;SDS011;592;48.764;9.174;2023-01-15T03:16:18;2.93;;;0.70;;
1204;SDS011;592;48.764;9.174;2023-01-15T03:19:03;2.20;;;0.60;;
1204;SDS011;592;48.764;9.174;2023-01-15T03:21:40;2.30;;;0.70;;
1204;SDS011;592;48.764;9.174;2023-01-15T03:24:13;2.60;;;0.70;;
1204;SDS011;592;48.764;9.174;2023-01-15T03:26:43;2.30;;;0.70;;
1204;SDS011;592;48.764;9.174;2023-01-15T03:29:11;2.20;;;0.60;;
1204;SDS011;592;48.764;9.174;2023-01-15T03:31:39;2.60;;;0.80;;
1204;SDS011;592;48.764;9.174;2023-01-15T03:34:08;2.87;;;0.90;;
1204;SDS011;592;48.764;9.174;2023-01-15T03:36:36;2.93;;;0.60;;
1204;SDS011;592;48.764;9.174;2023-01-15T03:39:03;2.30;;;0.70;;
1204;SDS011;592;48.764;9.174;2023-01-15T03:41:33;2.30;;;0.60;;
1204;SDS011;592;48.764;9.174;2023-01-15T03:44:12;2.93;;;0.83;;
1204;SDS011;592;48.764;9.174;2023-01-15T03:46:54;2.60;;;0.80;;
1204;SDS011;592;48.764;9.174;2023-01-15T03:49:32;2.40;;;0.80;;
1204;SDS011;592;48.764;9.174;2023-01-15T03:52:10;2.30;;;0.67;;
1204;SDS011;592;48.764;9.174;2023-01-15T03:54:43;2.40;;;0.70;;
1204;SDS011;592;48.764;9.174;2023-01-15T03:57:16;2.30;;;0.60;;
1204;SDS011;592;48.764;9.174;2023-01-15T03:59:52;2.40;;;0.70;;
1204;SDS011;592;48.764;9.174;2023-01-15T04:02:22;2.20;;;0.60;;
1204;SDS011;592;48.764;9.174;2023-01-15T04:04:50;2.33;;;0.70;;
1204;SDS011;592;48.764;9.174;2023-01-15T04:07:19;2.30;;;0.60;;
1204;SDS011;592;48.764;9.174;2023-01-15T04:09:46;2.30;;;0.60;;
1204;SDS011;592;48.764;9.174;2023-01-15T04:12:13;2.20;;;0.60;;
1204;SDS011;592;48.764;9.174;2023-01-15T04:14:40;2.30;;;0.60;;
1204;SDS011;592;48.764;9.174;2023-01-15T04:17:08;2.40;;;0.73;;
1204;SDS011;592;48.764;9.174;2023-01-15T04:19:35;2.23;;;0.60;;
1204;SDS011;592;48.764;9.174;2023-01-15T04:22:02;2.30;;;0.60;;
1204;SDS011;592;48.764;9.174;2023-01-15T04:24:29;2.97;;;0.70;;
1204;SDS011;592;48.764;9.174;2023-01-15T04:26:56;2.20;;;0.60;;
1204;SDS011;592;48.764;9.174;2023-01-15T04:29:22;2.77;;;0.60;;
1204;SDS011;592;48.764;9.174;2023-01-15T04:31:50;2.30;;;0.60;;
1204;SDS011;592;48.764;9.174;2023-01-15T04:34:22;2.90;;;0.60;;
1204;SDS011;592;48.764;9.174;2023-01-15T04:36:49;2.30;;;0.70;;
1204;SDS011;592;48.764;9.174;2023-01-15T04:39:16;3.17;;;0.70;;
1204;SDS011;592;48.764;9.174;2023-01-15T04:41:43;2.33;;;0.70;;
1204;SDS011;592;48.764;9.174;2023-01-15T04:44:27;2.30;;;0.60;;
1204;SDS011;592;48.764;9.174;2023-01-15T04:46:54;2.60;;;0.70;;
1204;SDS011;592;48.764;9.174;2023-01-15T04:49:25;2.60;;;0.67;;
1204;SDS011;592;48.764;9.174;2023-01-15T04:51:52;2.30;;;0.70;;
1204;SDS011;592;48.764;9.174;2023-01-15T04:54:19;2.90;;;0.80;;
1204;SDS011;592;48.764;9.174;2023-01-15T04:56:47;2.30;;;0.70;;
1204;SDS011;592;48.764;9.174;2023-01-15T04:59:16;2.93;;;0.73;;
1204;SDS011;592;48.764;9.174;2023-01-15T05:01:46;2.20;;;0.60;;
1204;SDS011;592;48.764;9.174;2023-01-15T05:04:13;3.00;;;0.60;;
1204;SDS011;592;48.764;9.174;2023-01-15T05:06:41;2.50;;;0.70;;
1204;SDS011;592;48.764;9.174;2023-01-15T05:09:07;2.20;;;0.60;;
1204;SDS011;592;48.764;9.174;2023-01-15T05:11:35;2.50;;;0.77;;
1204;SDS011;592;48.764;9.174;2023-01-15T05:14:02;3.40;;;0.80;;
1204;SDS011;592;48.764;9.174;2023-01-15T05:16:29;2.20;;;0.60;;
1204;SDS011;592;48.764;9.174;2023-01-15T05:18:57;2.40;;;0.60;;
1204;SDS011;592;48.764;9.174;2023-01-15T05:21:26;2.40;;;0.60;;
1204;SDS011;592;48.764;9.174;2023-01-15T05:23:57;2.70;;;0.70;;
1204;SDS011;592;48.764;9.174;2023-01-15T05:26:25;2.30;;;0.60;;
1204;SDS011;592;48.764;9.174;2023-01-15T05:28:53;2.40;;;0.60;;
1204;SDS011;592;48.764;9.174;2023-01-15T05:31:21;3.37;;;0.80;;
1204;SDS011;592;48.764;9.174;2023-01-15T05:33:48;4.13;;;0.70;;
1204;SDS011;592;48.764;9.174;2023-01-15T05:36:17;2.43;;;0.63;;
1204;SDS011;592;48.764;9.174;2023-01-15T05:38:46;2.20;;;0.60;;
1204;SDS011;592;48.764;9.174;2023-01-15T05:41:15;2.20;;;0.60;;
1204;SDS011;592;48.764;9.174;2023-01-15T05:44:00;2.20;;;0.60;;
1204;SDS011;592;48.764;9.174;2023-01-15T05:46:29;2.20;;;0.60;;
1204;SDS011;592;48.764;9.174;2023-01-15T05:48:58;2.20;;;0.60;;
1204;SDS011;592;48.764;9.174;2023-01-15T05:51:26;2.20;;;0.50;;
1204;SDS011;592;48.764;9.174;2023-01-15T05:53:53;2.10;;;0.50;;
1204;SDS011;592;48.764;9.174;2023-01-15T05:56:21;2.20;;;0.60;;
1204;SDS011;592;48.764;9.174;2023-01-15T05:58:47;2.30;;;0.67;;
1204;SDS011;592;48.764;9.174;2023-01-15T06:01:14;2.23;;;0.63;;
1204;SDS011;592;48.764;9.174;2023-01-15T06:03:41;2.10;;;0.50;;
1204;SDS011;592;48.764;9.174;2023-01-15T06:06:09;2.07;;;0.50;;
1204;SDS011;592;48.764;9.174;2023-01-15T06:08:39;2.20;;;0.60;;
1204;SDS011;592;48.764;9.174;2023-01-15T06:11:06;2.10;;;0.50;;
1204;SDS011;592;48.764;9.174;2023-01-15T06:13:34;2.03;;;0.50;;
1204;SDS011;592;48.764;9.174;2023-01-15T06:16:01;2.10;;;0.60;;
1204;SDS011;592;48.764;9.174;2023-01-15T06:18:27;2.20;;;0.60;;
1204;SDS011;592;48.764;9.174;2023-01-15T06:20:54;2.20;;;0.60;;
1204;SDS011;592;48.764;9.174;2023-01-15T06:23:21;2.10;;;0.50;;
1204;SDS011;592;48.764;9.174;2023-01-15T06:25:48;2.10;;;0.53;;
1204;SDS011;592;48.764;9.174;2023-01-15T06:28:14;2.10;;;0.50;;
1204;SDS011;592;48.764;9.174;2023-01-15T06:30:42;2.10;;;0.60;;
1204;SDS011;592;48.764;9.174;2023-01-15T06:33:09;2.10;;;0.60;;
1204;SDS011;592;48.764;9.174;2023-01-15T06:35:36;2.07;;;0.60;;
1204;SDS011;592;48.764;9.174;2023-01-15T06:38:02;2.10;;;0.50;;
1204;SDS011;592;48.764;9.174;2023-01-15T06:40:29;2.10;;;0.57;;
1204;SDS011;592;48.764;9.174;2023-01-15T06:42:57;2.60;;;0.60;;
1204;SDS011;592;48.764;9.174;2023-01-15T06:45:42;2.10;;;0.60;;
1204;SDS011;592;48.764;9.174;2023-01-15T06:48:27;2.10;;;0.60;;
1204;SDS011;592;48.764;9.174;2023-01-15T06:50:53;2.50;;;0.60;;
1204;SDS011;592;48.764;9.174;2023-01-15T06:53:22;2.17;;;0.60;;
1204;SDS011;592;48.764;9.174;2023-01-15T06:55:48;2.20;;;0.60;;
1204;SDS011;592;48.764;9.174;2023-01-15T06:58:15;2.30;;;0.60;;
1204;SDS011;592;48.764;9.174;2023-01-15T07:00:46;2.20;;;0.60;;
1204;SDS011;592;48.764;9.174;2023-01-15T07:03:19;2.53;;;0.67;;
1204;SDS011;592;48.764;9.174;2023-01-15T07:05:46;2.10;;;0.60;;
1204;SDS011;592;48.764;9.174;2023-01-15T07:08:13;2.07;;;0.60;;
1204;SDS011;592;48.764;9.174;2023-01-15T07:10:39;2.10;;;0.60;;
1204;SDS011;592;48.764;9.174;2023-01-15T07:13:07;2.20;;;0.60;;
1204;SDS011;592;48.764;9.174;2023-01-15T07:15:36;2.20;;;0.60;;
1204;SDS011;592;48.764;9.174;2023-01-15T07:18:04;2.13;;;0.60;;
1204;SDS011;592;48.764;9.174;2023-01-15T07:20:31;2.10;;;0.60;;
1204;SDS011;592;48.764;9.174;2023-01-15T07:22:58;2.20;;;0.63;;
1204;SDS011;592;48.764;9.174;2023-01-15T07:25:25;2.17;;;0.60;;
1204;SDS011;592;48.764;9.174;2023-01-15T07:27:51;2.80;;;0.60;;
1204;SDS011;592;48.764;9.174;2023-01-15T07:30:18;2.60;;;0.80;;
1204;SDS011;592;48.764;9.174;2023-01-15T07:32:45;2.53;;;0.77;;
1204;SDS011;592;48.764;9.174;2023-01-15T07:35:13;2.50;;;0.80;;
1204;SDS011;592;48.764;9.174;2023-01-15T07:37:40;2.50;;;0.67;;
1204;SDS011;592;48.764;9.174;2023-01-15T07:40:08;2.10;;;0.60;;
1204;SDS011;592;48.764;9.174;2023-01-15T07:42:36;2.10;;;0.60;;
1204;SDS011;592;48.764;9.174;2023-01-15T07:45:20;2.20;;;0.60;;
1204;SDS011;592;48.764;9.174;2023-01-15T07:48:06;2.20;;;0.60;;
1204;SDS011;592;48.764;9.174;2023-01-15T07:50:53;2.30;;;0.60;;
1204;SDS011;592;48.764;9.174;2023-01-15T07:53:20;2.20;;;0.70;;
1204;SDS011;592;48.764;9.174;2023-01-15T07:55:46;2.43;;;0.70;;
1204;SDS011;592;48.764;9.174;2023-01-15T07:58:13;2.20;;;0.60;;
1204;SDS011;592;48.764;9.174;2023-01-15T08:00:40;2.40;;;0.60;;
1204;SDS011;592;48.764;9.174;2023-01-15T08:03:06;2.10;;;0.60;;
1204;SDS011;592;48.764;9.174;2023-01-15T08:05:33;2.90;;;0.90;;
1204;SDS011;592;48.764;9.174;2023-01-15T08:08:01;2.60;;;0.80;;
1204;SDS011;592;48.764;9.174;2023-01-15T08:10:28;2.77;;;0.60;;
1204;SDS011;592;48.764;9.174;2023-01-15T08:12:55;2.47;;;0.70;;
1204;SDS011;592;48.764;9.174;2023-01-15T08:15:39;2.70;;;0.60;;
1204;SDS011;592;48.764;9.174;2023-01-15T08:18:07;2.20;;;0.60;;
1204;SDS011;592;48.764;9.174;2023-01-15T08:20:34;2.10;;;0.60;;
1204;SDS011;592;48.764;9.174;2023-01-15T08:23:02;2.10;;;0.50;;
1204;SDS011;592;48.764;9.174;2023-01-15T08:25:29;2.47;;;0.63;;
1204;SDS011;592;48.764;9.174;2023-01-15T08:28:00;2.10;;;0.60;;
1204;SDS011;592;48.764;9.174;2023-01-15T08:30:28;2.00;;;0.60;;
1204;SDS011;592;48.764;9.174;2023-01-15T08:32:58;2.00;;;0.50;;
1204;SDS011;592;48.764;9.174;2023-01-15T08:35:27;2.50;;;0.60;;
1204;SDS011;592;48.764;9.174;2023-01-15T08:37:53;2.20;;;0.60;;
1204;SDS011;592;48.764;9.174;2023-01-15T08:40:21;2.23;;;0.63;;
1204;SDS011;592;48.764;9.174;2023-01-15T08:42:48;2.00;;;0.50;;
1204;SDS011;592;48.764;9.174;2023-01-15T08:45:15;2.20;;;0.60;;
1204;SDS011;592;48.764;9.174;2023-01-15T08:47:41;2.77;;;0.70;;
1204;SDS011;592;48.764;9.174;2023-01-15T08:50:09;2.10;;;0.60;;
1204;SDS011;592;48.764;9.174;2023-01-15T08:52:36;2.07;;;0.53;;
1204;SDS011;592;48.764;9.174;2023-01-15T08:55:03;2.30;;;0.60;;
1204;SDS011;592;48.764;9.174;2023-01-15T08:57:32;2.17;;;0.60;;
1204;SDS011;592;48.764;9.174;2023-01-15T08:59:59;2.10;;;0.60;;
1204;SDS011;592;48.764;9.174;2023-01-15T09:02:26;2.20;;;0.80;;
1204;SDS011;592;48.764;9.174;2023-01-15T09:04:53;2.10;;;0.60;;
1204;SDS011;592;48.764;9.174;2023-01-15T09:07:20;2.60;;;0.70;;
1204;SDS011;592;48.764;9.174;2023-01-15T09:09:47;2.00;;;0.50;;
1204;SDS011;592;48.764;9.174;2023-01-15T09:12:13;2.40;;;0.60;;
1204;SDS011;592;48.764;9.174;2023-01-15T09:14:42;3.17;;;0.70;;
1204;SDS011;592;48.764;9.174;2023-01-15T09:17:08;2.43;;;0.60;;
1204;SDS011;592;48.764;9.174;2023-01-15T09:19:35;2.10;;;0.60;;
1204;SDS011;592;48.764;9.174;2023-01-15T09:22:02;2.27;;;0.70;;
1204;SDS011;592;48.764;9.174;2023-01-15T09:24:28;3.50;;;1.00;;
1204;SDS011;592;48.764;9.174;2023-01-15T09:26:55;6.23;;;1.13;;
1204;SDS011;592;48.764;9.174;2023-01-15T09:29:22;2.50;;;0.70;;
1204;SDS011;592;48.764;9.174;2023-01-15T09:31:50;2.70;;;0.80;;
1204;SDS011;592;48.764;9.174;2023-01-15T09:34:16;2.77;;;0.93;;
1204;SDS011;592;48.764;9.174;2023-01-15T09:36:43;2.60;;;0.97;;
1204;SDS011;592;48.764;9.174;2023-01-15T09:39:10;4.40;;;2.20;;
1204;SDS011;592;48.764;9.174;2023-01-15T09:41:44;5.93;;;1.93;;
1204;SDS011;592;48.764;9.174;2023-01-15T09:44:32;4.07;;;2.13;;
1204;SDS011;592;48.764;9.174;2023-01-15T09:47:12;3.83;;;1.87;;
1204;SDS011;592;48.764;9.174;2023-01-15T09:49:48;4.17;;;1.97;;
1204;SDS011;592;48.764;9.174;2023-01-15T09:52:24;4.73;;;1.70;;
1204;SDS011;592;48.764;9.174;2023-01-15T09:54:58;2.50;;;0.83;;
1204;SDS011;592;48.764;9.174;2023-01-15T09:57:30;2.60;;;0.90;;
1204;SDS011;592;48.764;9.174;2023-01-15T09:59:58;2.40;;;0.80;;
1204;SDS011;592;48.764;9.174;2023-01-15T10:02:29;4.23;;;2.47;;
1204;SDS011;592;48.764;9.174;2023-01-15T10:05:01;4.57;;;1.90;;
1204;SDS011;592;48.764;9.174;2023-01-15T10:07:35;2.50;;;0.80;;
1204;SDS011;592;48.764;9.174;2023-01-15T10:10:09;3.60;;;1.20;;
1204;SDS011;592;48.764;9.174;2023-01-15T10:12:39;2.80;;;0.80;;
1204;SDS011;592;48.764;9.174;2023-01-15T10:15:21;2.60;;;0.80;;
1204;SDS011;592;48.764;9.174;2023-01-15T10:17:54;2.60;;;1.00;;
1204;SDS011;592;48.764;9.174;2023-01-15T10:20:27;3.20;;;1.10;;
1204;SDS011;592;48.764;9.174;2023-01-15T10:23:30;2.50;;;0.97;;
1204;SDS011;592;48.764;9.174;2023-01-15T10:26:01;3.03;;;1.10;;
1204;SDS011;592;48.764;9.174;2023-01-15T10:28:30;2.50;;;0.90;;
1204;SDS011;592;48.764;9.174;2023-01-15T10:31:17;2.40;;;0.70;;
1204;SDS011;592;48.764;9.174;2023-01-15T10:33:51;2.50;;;0.80;;
1204;SDS011;592;48.764;9.174;2023-01-15T10:36:29;2.17;;;0.60;;
1204;SDS011;592;48.764;9.174;2023-01-15T10:39:02;3.83;;;0.60;;
1204;SDS011;592;48.764;9.174;2023-01-15T10:41:42;2.47;;;0.80;;
1204;SDS011;592;48.764;9.174;2023-01-15T10:44:17;2.40;;;0.70;;
1204;SDS011;592;48.764;9.174;2023-01-15T10:46:52;2.40;;;0.80;;
1204;SDS011;592;48.764;9.174;2023-01-15T10:49:25;2.30;;;0.70;;
1204;SDS011;592;48.764;9.174;2023-01-15T10:51:54;2.27;;;0.70;;
1204;SDS011;592;48.764;9.174;2023-01-15T10:54:26;2.57;;;0.87;;
1204;SDS011;592;48.764;9.174;2023-01-15T10:56:59;3.00;;;0.80;;
1204;SDS011;592;48.764;9.174;2023-01-15T10:59:37;3.47;;;0.90;;
1204;SDS011;592;48.764;9.174;2023-01-15T11:02:18;2.20;;;0.60;;
1204;SDS011;592;48.764;9.174;2023-01-15T11:04:51;2.80;;;1.10;;
1204;SDS011;592;48.764;9.174;2023-01-15T11:07:18;2.20;;;0.70;;
1204;SDS011;592;48.764;9.174;2023-01-15T11:09:47;2.30;;;0.70;;
1204;SDS011;592;48.764;9.174;2023-01-15T11:12:19;3.10;;;1.10;;
1204;SDS011;592;48.764;9.174;2023-01-15T11:15:13;2.10;;;0.60;;
1204;SDS011;592;48.764;9.174;2023-01-15T11:17:59;2.17;;;0.60;;
1204;SDS011;592;48.764;9.174;2023-01-15T11:20:47;2.13;;;0.60;;
1204;SDS011;592;48.764;9.174;2023-01-15T11:23:16;2.20;;;0.60;;
1204;SDS011;592;48.764;9.174;2023-01-15T11:25:48;2.20;;;0.60;;
1204;SDS011;592;48.764;9.174;2023-01-15T11:28:17;2.10;;;0.60;;
1204;SDS011;592;48.764;9.174;2023-01-15T11:30:51;3.50;;;0.80;;
1204;SDS011;592;48.764;9.174;2023-01-15T11:33:23;2.70;;;0.70;;
1204;SDS011;592;48.764;9.174;2023-01-15T11:35:54;2.10;;;0.50;;
1204;SDS011;592;48.764;9.174;2023-01-15T11:38:22;2.50;;;0.70;;
1204;SDS011;592;48.764;9.174;2023-01-15T11:40:50;2.30;;;0.60;;
1204;SDS011;592;48.764;9.174;2023-01-15T11:43:19;2.30;;;0.80;;
1204;SDS011;592;48.764;9.174;2023-01-15T11:46:04;2.10;;;0.60;;
1204;SDS011;592;48.764;9.174;2023-01-15T11:48:48;2.30;;;0.70;;
1204;SDS011;592;48.764;9.174;2023-01-15T11:51:36;2.77;;;0.80;;
1204;SDS011;592;48.764;9.174;2023-01-15T11:54:07;2.50;;;0.70;;
1204;SDS011;592;48.764;9.174;2023-01-15T11:56:39;2.50;;;0.80;;
1204;SDS011;592;48.764;9.174;2023-01-15T11:59:09;2.47;;;0.73;;
1204;SDS011;592;48.764;9.174;2023-01-15T12:01:38;2.50;;;0.70;;
1204;SDS011;592;48.764;9.174;2023-01-15T12:04:22;2.57;;;0.73;;
1204;SDS011;592;48.764;9.174;2023-01-15T12:07:02;2.20;;;0.70;;
1204;SDS011;592;48.764;9.174;2023-01-15T12:09:34;2.50;;;0.73;;
1204;SDS011;592;48.764;9.174;2023-01-15T12:12:14;2.20;;;0.60;;
1204;SDS011;592;48.764;9.174;2023-01-15T12:14:55;2.10;;;0.60;;
1204;SDS011;592;48.764;9.174;2023-01-15T12:17:41;2.50;;;0.70;;
1204;SDS011;592;48.764;9.174;2023-01-15T12:20:20;2.20;;;0.70;;
1204;SDS011;592;48.764;9.174;2023-01-15T12:22:59;2.43;;;0.70;;
1204;SDS011;592;48.764;9.174;2023-01-15T12:25:40;2.47;;;0.67;;
1204;SDS011;592;48.764;9.174;2023-01-15T12:28:19;3.03;;;0.70;;
1204;SDS011;592;48.764;9.174;2023-01-15T12:30:53;2.40;;;0.70;;
1204;SDS011;592;48.764;9.174;2023-01-15T12:33:35;2.90;;;0.87;;
1204;SDS011;592;48.764;9.174;2023-01-15T12:36:11;2.10;;;0.60;;
1204;SDS011;592;48.764;9.174;2023-01-15T12:38:45;3.53;;;1.43;;
1204;SDS011;592;48.764;9.174;2023-01-15T12:41:15;3.20;;;0.90;;
1204;SDS011;592;48.764;9.174;2023-01-15T12:43:46;3.70;;;0.80;;
1204;SDS011;592;48.764;9.174;2023-01-15T12:46:35;2.97;;;0.80;;
1204;SDS011;592;48.764;9.174;2023-01-15T12:49:07;2.47;;;0.80;;
1204;SDS011;592;48.764;9.174;2023-01-15T12:51:44;2.80;;;0.87;;
1204;SDS011;592;48.764;9.174;2023-01-15T12:54:18;3.00;;;0.80;;
1204;SDS011;592;48.764;9.174;2023-01-15T12:56:52;2.40;;;0.70;;
1204;SDS011;592;48.764;9.174;2023-01-15T12:59:24;2.60;;;0.83;;
1204;SDS011;592;48.764;9.174;2023-01-15T13:01:57;2.93;;;1.20;;
1204;SDS011;592;48.764;9.174;2023-01-15T13:04:38;3.40;;;1.00;;
1204;SDS011;592;48.764;9.174;2023-01-15T13:07:11;3.67;;;0.97;;
1204;SDS011;592;48.764;9.174;2023-01-15T13:09:46;2.80;;;0.90;;
1204;SDS011;592;48.764;9.174;2023-01-15T13:12:17;2.70;;;1.00;;
1204;SDS011;592;48.764;9.174;2023-01-15T13:14:44;2.43;;;0.77;;
1204;SDS011;592;48.764;9.174;2023-01-15T13:17:13;4.03;;;0.80;;
1204;SDS011;592;48.764;9.174;2023-01-15T13:19:51;2.97;;;0.93;;
1204;SDS011;592;48.764;9.174;2023-01-15T13:22:27;2.47;;;0.80;;
1204;SDS011;592;48.764;9.174;2023-01-15T13:28:00;2.70;;;0.90;;
1204;SDS011;592;48.764;9.174;2023-01-15T13:30:41;2.80;;;0.80;;
1204;SDS011;592;48.764;9.174;2023-01-15T13:33:21;3.07;;;0.80;;
1204;SDS011;592;48.764;9.174;2023-01-15T13:35:52;3.33;;;0.80;;
1204;SDS011;592;48.764;9.174;2023-01-15T13:38:23;2.77;;;0.90;;
1204;SDS011;592;48.764;9.174;2023-01-15T13:40:54;2.70;;;0.80;;
1204;SDS011;592;48.764;9.174;2023-01-15T13:43:30;3.60;;;0.90;;
1204;SDS011;592;48.764;9.174;2023-01-15T13:46:00;2.60;;;0.90;;
1204;SDS011;592;48.764;9.174;2023-01-15T13:48:29;2.70;;;0.80;;
1204;SDS011;592;48.764;9.174;2023-01-15T13:51:01;4.27;;;1.10;;
1204;SDS011;592;48.764;9.174;2023-01-15T13:53:30;2.70;;;0.80;;
1204;SDS011;592;48.764;9.174;2023-01-15T13:56:01;3.30;;;1.00;;
1204;SDS011;592;48.764;9.174;2023-01-15T13:58:31;2.87;;;0.80;;
1204;SDS011;592;48.764;9.174;2023-01-15T14:00:59;3.00;;;0.90;;
1204;SDS011;592;48.764;9.174;2023-01-15T14:03:29;3.73;;;1.00;;
1204;SDS011;592;48.764;9.174;2023-01-15T14:05:57;3.60;;;1.00;;
1204;SDS011;592;48.764;9.174;2023-01-15T14:08:26;3.20;;;1.10;;
1204;SDS011;592;48.764;9.174;2023-01-15T14:10:54;2.80;;;0.90;;
1204;SDS011;592;48.764;9.174;2023-01-15T14:13:30;4.57;;;1.30;;
1204;SDS011;592;48.764;9.174;2023-01-15T14:16:11;4.17;;;1.00;;
1204;SDS011;592;48.764;9.174;2023-01-15T14:19:06;3.07;;;1.17;;
1204;SDS011;592;48.764;9.174;2023-01-15T14:21:47;4.10;;;1.30;;
1204;SDS011;592;48.764;9.174;2023-01-15T14:27:30;2.90;;;0.90;;
1204;SDS011;592;48.764;9.174;2023-01-15T14:30:11;2.93;;;1.10;;
1204;SDS011;592;48.764;9.174;2023-01-15T14:32:54;4.10;;;0.80;;
1204;SDS011;592;48.764;9.174;2023-01-15T14:35:33;3.47;;;1.00;;
1204;SDS011;592;48.764;9.174;2023-01-15T14:38:03;3.07;;;1.07;;
1204;SDS011;592;48.764;9.174;2023-01-15T14:40:32;3.57;;;1.10;;
1204;SDS011;592;48.764;9.174;2023-01-15T14:43:01;3.27;;;1.40;;
1204;SDS011;592;48.764;9.174;2023-01-15T14:45:36;4.60;;;1.30;;
1204;SDS011;592;48.764;9.174;2023-01-15T14:48:14;7.27;;;1.20;;
1204;SDS011;592;48.764;9.174;2023-01-15T14:50:44;3.53;;;1.13;;
1204;SDS011;592;48.764;9.174;2023-01-15T14:53:16;3.70;;;1.10;;
1204;SDS011;592;48.764;9.174;2023-01-15T14:55:56;6.30;;;1.60;;
1204;SDS011;592;48.764;9.174;2023-01-15T14:58:29;3.47;;;1.20;;
1204;SDS011;592;48.764;9.174;2023-01-15T15:01:03;3.97;;;1.40;;
1204;SDS011;592;48.764;9.174;2023-01-15T15:03:40;6.13;;;1.40;;
1204;SDS011;592;48.764;9.174;2023-01-15T15:06:11;3.27;;;1.20;;
1204;SDS011;592;48.764;9.174;2023-01-15T15:08:39;4.67;;;1.27;;
1204;SDS011;592;48.764;9.174;2023-01-15T15:11:11;3.77;;;0.80;;
1204;SDS011;592;48.764;9.174;2023-01-15T15:13:57;6.60;;;1.20;;
1204;SDS011;592;48.764;9.174;2023-01-15T15:16:27;3.47;;;1.57;;
1204;SDS011;592;48.764;9.174;2023-01-15T15:18:57;3.27;;;1.00;;
1204;SDS011;592;48.764;9.174;2023-01-15T15:21:28;4.40;;;1.23;;
1204;SDS011;592;48.764;9.174;2023-01-15T15:24:06;3.93;;;1.50;;
1204;SDS011;592;48.764;9.174;2023-01-15T15:26:37;4.50;;;1.33;;
1204;SDS011;592;48.764;9.174;2023-01-15T15:29:05;6.53;;;1.70;;
1204;SDS011;592;48.764;9.174;2023-01-15T15:31:39;3.30;;;1.10;;
1204;SDS011;592;48.764;9.174;2023-01-15T15:34:11;4.60;;;1.40;;
1204;SDS011;592;48.764;9.174;2023-01-15T15:36:43;7.97;;;1.50;;
1204;SDS011;592;48.764;9.174;2023-01-15T15:39:14;3.10;;;1.20;;
1204;SDS011;592;48.764;9.174;2023-01-15T15:41:44;3.70;;;1.37;;
1204;SDS011;592;48.764;9.174;2023-01-15T15:44:31;3.50;;;1.17;;
1204;SDS011;592;48.764;9.174;2023-01-15T15:47:21;7.13;;;1.30;;
1204;SDS011;592;48.764;9.174;2023-01-15T15:50:17;4.10;;;1.20;;
1204;SDS011;592;48.764;9.174;2023-01-15T15:52:47;3.60;;;1.20;;
1204;SDS011;592;48.764;9.174;2023-01-15T15:55:14;3.00;;;1.03;;
1204;SDS011;592;48.764;9.174;2023-01-15T15:57:42;3.70;;;1.00;;
1204;SDS011;592;48.764;9.174;2023-01-15T16:00:14;6.80;;;1.10;;
1204;SDS011;592;48.764;9.174;2023-01-15T16:02:44;3.20;;;0.90;;